<?xml version="1.0" encoding="UTF-8" standalone="no" ?>
<gpx xmlns="http://www.topografix.com/GPX/1/1" xmlns:xsi="http://www.w3.org/2001/XMLSchema-instance" xsi:schemaLocation="http://www.topografix.com/GPX/1/1 http://www.topografix.com/GPX/1/1/gpx.xsd" version="1.1" creator="VisuGPX - https://www.visugpx.com">
  <metadata>
    <name>sejour gov alsace</name>
  </metadata>
  <wpt lat="48.06424" lon="7.02221">
    <ele>1132</ele>
    <name><![CDATA[Col de la Schlucht]]></name>
    <desc><![CDATA[Parking]]></desc>
    <cmt><![CDATA[Parking]]></cmt>
  </wpt>
  <wpt lat="48.04158" lon="7.29947">
    <ele>223</ele>
    <name><![CDATA[Eguisheim]]></name>
  </wpt>
  <wpt lat="48.1793" lon="7.31018">
    <ele>275</ele>
    <name><![CDATA[Hunawihr]]></name>
  </wpt>
  <wpt lat="48.13923" lon="7.25933">
    <ele>251</ele>
    <name><![CDATA[Kaysersberg]]></name>
  </wpt>
  <wpt lat="48.14587" lon="7.25086">
    <ele>290</ele>
    <name><![CDATA[Kaysersberg-CCAS]]></name>
    <desc><![CDATA[3 Rue Rene le Guen]]></desc>
    <cmt><![CDATA[3 Rue Rene le Guen]]></cmt>
  </wpt>
  <wpt lat="48.14668" lon="7.25549">
    <ele>261</ele>
    <name><![CDATA[Kaysersberg-Salle de Sport]]></name>
  </wpt>
  <wpt lat="48.11261" lon="7.10019">
    <ele>958</ele>
    <name><![CDATA[Lac Noir]]></name>
  </wpt>
  <wpt lat="48.17" lon="7.12576">
    <ele>667</ele>
    <name><![CDATA[Le Bonhomme]]></name>
  </wpt>
  <wpt lat="48.05292" lon="6.9482">
    <ele>918</ele>
    <name><![CDATA[Lispach]]></name>
  </wpt>
  <wpt lat="48.16758" lon="7.29424">
    <ele>321</ele>
    <name><![CDATA[Riquewihr]]></name>
  </wpt>
  <wpt lat="48.23274" lon="7.36606">
    <ele>254</ele>
    <name><![CDATA[St-Hippolyte]]></name>
  </wpt>
  <wpt lat="48.22694" lon="7.30439">
    <ele>466</ele>
    <name><![CDATA[Thannenkirch]]></name>
  </wpt>
  <trk>
    <name><![CDATA[01B-Kaysersberg-Ammerschwihr (8,4 km-350 m)]]></name>
    <trkseg>
      <trkpt lat="48.13904" lon="7.25957">
        <ele>251</ele>
        <time>2017-06-07T08:06:32Z</time>
      </trkpt>
      <trkpt lat="48.13903" lon="7.25959">
        <ele>252</ele>
        <time>2017-06-07T08:08:32Z</time>
      </trkpt>
      <trkpt lat="48.13863" lon="7.25988">
        <ele>251</ele>
        <time>2017-06-07T08:10:32Z</time>
      </trkpt>
      <trkpt lat="48.13812" lon="7.26029">
        <ele>250</ele>
        <time>2017-06-07T08:12:32Z</time>
      </trkpt>
      <trkpt lat="48.13784" lon="7.26074">
        <ele>248</ele>
        <time>2017-06-07T08:14:32Z</time>
      </trkpt>
      <trkpt lat="48.13779" lon="7.26078">
        <ele>248</ele>
        <time>2017-06-07T08:16:32Z</time>
      </trkpt>
      <trkpt lat="48.13727" lon="7.26041">
        <ele>249</ele>
        <time>2017-06-07T08:18:32Z</time>
      </trkpt>
      <trkpt lat="48.13684" lon="7.25984">
        <ele>253</ele>
        <time>2017-06-07T08:20:32Z</time>
      </trkpt>
      <trkpt lat="48.1363" lon="7.26018">
        <ele>254</ele>
        <time>2017-06-07T08:22:32Z</time>
      </trkpt>
      <trkpt lat="48.13569" lon="7.25953">
        <ele>263</ele>
        <time>2017-06-07T08:24:32Z</time>
      </trkpt>
      <trkpt lat="48.13481" lon="7.25828">
        <ele>281</ele>
        <time>2017-06-07T08:26:32Z</time>
      </trkpt>
      <trkpt lat="48.13441" lon="7.25732">
        <ele>294</ele>
        <time>2017-06-07T08:28:32Z</time>
      </trkpt>
      <trkpt lat="48.134" lon="7.25576">
        <ele>310</ele>
        <time>2017-06-07T08:30:32Z</time>
      </trkpt>
      <trkpt lat="48.134" lon="7.25548">
        <ele>312</ele>
        <time>2017-06-07T08:32:32Z</time>
      </trkpt>
      <trkpt lat="48.13393" lon="7.25519">
        <ele>317</ele>
        <time>2017-06-07T08:34:32Z</time>
      </trkpt>
      <trkpt lat="48.13355" lon="7.25451">
        <ele>335</ele>
        <time>2017-06-07T08:36:32Z</time>
      </trkpt>
      <trkpt lat="48.13336" lon="7.25356">
        <ele>344</ele>
        <time>2017-06-07T08:38:32Z</time>
      </trkpt>
      <trkpt lat="48.13293" lon="7.25224">
        <ele>370</ele>
        <time>2017-06-07T08:40:32Z</time>
      </trkpt>
      <trkpt lat="48.13276" lon="7.2513">
        <ele>385</ele>
        <time>2017-06-07T08:42:32Z</time>
      </trkpt>
      <trkpt lat="48.13276" lon="7.25049">
        <ele>398</ele>
        <time>2017-06-07T08:44:32Z</time>
      </trkpt>
      <trkpt lat="48.13268" lon="7.24924">
        <ele>417</ele>
        <time>2017-06-07T08:46:32Z</time>
      </trkpt>
      <trkpt lat="48.13255" lon="7.24846">
        <ele>430</ele>
        <time>2017-06-07T08:48:32Z</time>
      </trkpt>
      <trkpt lat="48.132" lon="7.24719">
        <ele>472</ele>
        <time>2017-06-07T08:50:32Z</time>
      </trkpt>
      <trkpt lat="48.13192" lon="7.24687">
        <ele>482</ele>
        <time>2017-06-07T08:52:32Z</time>
      </trkpt>
      <trkpt lat="48.13152" lon="7.2457">
        <ele>518</ele>
        <time>2017-06-07T08:54:32Z</time>
      </trkpt>
      <trkpt lat="48.13152" lon="7.24566">
        <ele>519</ele>
        <time>2017-06-07T08:56:32Z</time>
      </trkpt>
      <trkpt lat="48.13114" lon="7.24433">
        <ele>552</ele>
        <time>2017-06-07T08:58:32Z</time>
      </trkpt>
      <trkpt lat="48.13048" lon="7.24324">
        <ele>556</ele>
        <time>2017-06-07T09:00:32Z</time>
      </trkpt>
      <trkpt lat="48.13015" lon="7.24453">
        <ele>548</ele>
        <time>2017-06-07T09:02:32Z</time>
      </trkpt>
      <trkpt lat="48.12994" lon="7.24623">
        <ele>531</ele>
        <time>2017-06-07T09:04:32Z</time>
      </trkpt>
      <trkpt lat="48.1303" lon="7.24812">
        <ele>501</ele>
        <time>2017-06-07T09:06:32Z</time>
      </trkpt>
      <trkpt lat="48.13045" lon="7.24911">
        <ele>488</ele>
        <time>2017-06-07T09:08:32Z</time>
      </trkpt>
      <trkpt lat="48.13045" lon="7.24917">
        <ele>488</ele>
        <time>2017-06-07T09:10:32Z</time>
      </trkpt>
      <trkpt lat="48.13034" lon="7.25053">
        <ele>473</ele>
        <time>2017-06-07T09:12:32Z</time>
      </trkpt>
      <trkpt lat="48.13046" lon="7.25192">
        <ele>452</ele>
        <time>2017-06-07T09:14:32Z</time>
      </trkpt>
      <trkpt lat="48.13048" lon="7.25252">
        <ele>449</ele>
        <time>2017-06-07T09:16:32Z</time>
      </trkpt>
      <trkpt lat="48.13034" lon="7.25267">
        <ele>451</ele>
        <time>2017-06-07T09:18:32Z</time>
      </trkpt>
      <trkpt lat="48.13022" lon="7.25275">
        <ele>452</ele>
        <time>2017-06-07T09:20:32Z</time>
      </trkpt>
      <trkpt lat="48.12984" lon="7.25303">
        <ele>454</ele>
        <time>2017-06-07T09:22:32Z</time>
      </trkpt>
      <trkpt lat="48.12901" lon="7.25256">
        <ele>432</ele>
        <time>2017-06-07T09:24:32Z</time>
      </trkpt>
      <trkpt lat="48.12842" lon="7.25256">
        <ele>417</ele>
        <time>2017-06-07T09:26:32Z</time>
      </trkpt>
      <trkpt lat="48.12754" lon="7.25277">
        <ele>393</ele>
        <time>2017-06-07T09:28:32Z</time>
      </trkpt>
      <trkpt lat="48.12725" lon="7.2535">
        <ele>391</ele>
        <time>2017-06-07T09:30:32Z</time>
      </trkpt>
      <trkpt lat="48.12684" lon="7.25412">
        <ele>381</ele>
        <time>2017-06-07T09:32:32Z</time>
      </trkpt>
      <trkpt lat="48.12678" lon="7.25438">
        <ele>379</ele>
        <time>2017-06-07T09:34:32Z</time>
      </trkpt>
      <trkpt lat="48.12702" lon="7.25542">
        <ele>389</ele>
        <time>2017-06-07T09:36:32Z</time>
      </trkpt>
      <trkpt lat="48.12667" lon="7.25623">
        <ele>374</ele>
        <time>2017-06-07T09:38:32Z</time>
      </trkpt>
      <trkpt lat="48.12682" lon="7.2576">
        <ele>380</ele>
        <time>2017-06-07T09:40:32Z</time>
      </trkpt>
      <trkpt lat="48.12683" lon="7.25884">
        <ele>374</ele>
        <time>2017-06-07T09:42:32Z</time>
      </trkpt>
      <trkpt lat="48.12673" lon="7.26065">
        <ele>356</ele>
        <time>2017-06-07T09:44:32Z</time>
      </trkpt>
      <trkpt lat="48.12648" lon="7.26213">
        <ele>339</ele>
        <time>2017-06-07T09:46:32Z</time>
      </trkpt>
      <trkpt lat="48.12629" lon="7.26272">
        <ele>331</ele>
        <time>2017-06-07T09:48:32Z</time>
      </trkpt>
      <trkpt lat="48.12623" lon="7.26336">
        <ele>324</ele>
        <time>2017-06-07T09:50:32Z</time>
      </trkpt>
      <trkpt lat="48.12625" lon="7.26445">
        <ele>310</ele>
        <time>2017-06-07T09:52:32Z</time>
      </trkpt>
      <trkpt lat="48.12632" lon="7.26486">
        <ele>308</ele>
        <time>2017-06-07T09:54:32Z</time>
      </trkpt>
      <trkpt lat="48.12636" lon="7.26632">
        <ele>289</ele>
        <time>2017-06-07T09:56:32Z</time>
      </trkpt>
      <trkpt lat="48.12585" lon="7.26704">
        <ele>273</ele>
        <time>2017-06-07T09:58:32Z</time>
      </trkpt>
      <trkpt lat="48.12558" lon="7.26706">
        <ele>271</ele>
        <time>2017-06-07T10:00:32Z</time>
      </trkpt>
      <trkpt lat="48.12511" lon="7.26733">
        <ele>265</ele>
        <time>2017-06-07T10:02:32Z</time>
      </trkpt>
      <trkpt lat="48.12518" lon="7.26825">
        <ele>265</ele>
        <time>2017-06-07T10:04:32Z</time>
      </trkpt>
      <trkpt lat="48.12526" lon="7.26867">
        <ele>265</ele>
        <time>2017-06-07T10:06:32Z</time>
      </trkpt>
      <trkpt lat="48.12529" lon="7.27004">
        <ele>263</ele>
        <time>2017-06-07T10:08:32Z</time>
      </trkpt>
      <trkpt lat="48.12501" lon="7.27077">
        <ele>259</ele>
        <time>2017-06-07T10:10:32Z</time>
      </trkpt>
      <trkpt lat="48.12503" lon="7.27243">
        <ele>255</ele>
        <time>2017-06-07T10:12:32Z</time>
      </trkpt>
      <trkpt lat="48.12522" lon="7.27346">
        <ele>255</ele>
        <time>2017-06-07T10:14:32Z</time>
      </trkpt>
      <trkpt lat="48.12522" lon="7.27381">
        <ele>254</ele>
        <time>2017-06-07T10:16:32Z</time>
      </trkpt>
      <trkpt lat="48.1251" lon="7.27465">
        <ele>252</ele>
        <time>2017-06-07T10:18:32Z</time>
      </trkpt>
      <trkpt lat="48.12526" lon="7.27691">
        <ele>248</ele>
        <time>2017-06-07T10:20:32Z</time>
      </trkpt>
      <trkpt lat="48.1254" lon="7.27733">
        <ele>247</ele>
        <time>2017-06-07T10:22:32Z</time>
      </trkpt>
      <trkpt lat="48.12551" lon="7.27797">
        <ele>246</ele>
        <time>2017-06-07T10:24:32Z</time>
      </trkpt>
      <trkpt lat="48.12565" lon="7.27833">
        <ele>245</ele>
        <time>2017-06-07T10:26:32Z</time>
      </trkpt>
      <trkpt lat="48.125" lon="7.27897">
        <ele>247</ele>
        <time>2017-06-07T10:28:32Z</time>
      </trkpt>
      <trkpt lat="48.12521" lon="7.28002">
        <ele>244</ele>
        <time>2017-06-07T10:30:32Z</time>
      </trkpt>
      <trkpt lat="48.12527" lon="7.28012">
        <ele>244</ele>
        <time>2017-06-07T10:32:32Z</time>
      </trkpt>
      <trkpt lat="48.12545" lon="7.2802">
        <ele>243</ele>
        <time>2017-06-07T10:34:32Z</time>
      </trkpt>
      <trkpt lat="48.1255" lon="7.28099">
        <ele>241</ele>
        <time>2017-06-07T10:36:32Z</time>
      </trkpt>
      <trkpt lat="48.1254" lon="7.28153">
        <ele>240</ele>
        <time>2017-06-07T10:38:32Z</time>
      </trkpt>
      <trkpt lat="48.12585" lon="7.28134">
        <ele>240</ele>
        <time>2017-06-07T10:40:32Z</time>
      </trkpt>
      <trkpt lat="48.12587" lon="7.28136">
        <ele>240</ele>
        <time>2017-06-07T10:42:32Z</time>
      </trkpt>
      <trkpt lat="48.12533" lon="7.28154">
        <ele>240</ele>
        <time>2017-06-07T10:44:32Z</time>
      </trkpt>
      <trkpt lat="48.12548" lon="7.28105">
        <ele>241</ele>
        <time>2017-06-07T10:46:32Z</time>
      </trkpt>
      <trkpt lat="48.12549" lon="7.2805">
        <ele>242</ele>
        <time>2017-06-07T10:48:32Z</time>
      </trkpt>
      <trkpt lat="48.12542" lon="7.28016">
        <ele>244</ele>
        <time>2017-06-07T10:50:32Z</time>
      </trkpt>
      <trkpt lat="48.12519" lon="7.28003">
        <ele>244</ele>
        <time>2017-06-07T10:52:32Z</time>
      </trkpt>
      <trkpt lat="48.12504" lon="7.27892">
        <ele>247</ele>
        <time>2017-06-07T10:54:32Z</time>
      </trkpt>
      <trkpt lat="48.12519" lon="7.27868">
        <ele>247</ele>
        <time>2017-06-07T10:56:32Z</time>
      </trkpt>
      <trkpt lat="48.12553" lon="7.27845">
        <ele>245</ele>
        <time>2017-06-07T10:58:32Z</time>
      </trkpt>
      <trkpt lat="48.12566" lon="7.27824">
        <ele>245</ele>
        <time>2017-06-07T11:00:32Z</time>
      </trkpt>
      <trkpt lat="48.12551" lon="7.27803">
        <ele>246</ele>
        <time>2017-06-07T11:02:32Z</time>
      </trkpt>
      <trkpt lat="48.12549" lon="7.27777">
        <ele>246</ele>
        <time>2017-06-07T11:04:32Z</time>
      </trkpt>
      <trkpt lat="48.12605" lon="7.27767">
        <ele>246</ele>
        <time>2017-06-07T11:06:32Z</time>
      </trkpt>
      <trkpt lat="48.12643" lon="7.27783">
        <ele>247</ele>
        <time>2017-06-07T11:08:32Z</time>
      </trkpt>
      <trkpt lat="48.12734" lon="7.27777">
        <ele>257</ele>
        <time>2017-06-07T11:10:32Z</time>
      </trkpt>
      <trkpt lat="48.12792" lon="7.27801">
        <ele>258</ele>
        <time>2017-06-07T11:12:32Z</time>
      </trkpt>
      <trkpt lat="48.12828" lon="7.27793">
        <ele>261</ele>
        <time>2017-06-07T11:14:32Z</time>
      </trkpt>
      <trkpt lat="48.12857" lon="7.27754">
        <ele>267</ele>
        <time>2017-06-07T11:16:32Z</time>
      </trkpt>
      <trkpt lat="48.12939" lon="7.27731">
        <ele>269</ele>
        <time>2017-06-07T11:18:32Z</time>
      </trkpt>
      <trkpt lat="48.12958" lon="7.27741">
        <ele>269</ele>
        <time>2017-06-07T11:20:32Z</time>
      </trkpt>
      <trkpt lat="48.13016" lon="7.27741">
        <ele>270</ele>
        <time>2017-06-07T11:22:32Z</time>
      </trkpt>
      <trkpt lat="48.13037" lon="7.27715">
        <ele>271</ele>
        <time>2017-06-07T11:24:32Z</time>
      </trkpt>
      <trkpt lat="48.13039" lon="7.27663">
        <ele>279</ele>
        <time>2017-06-07T11:26:32Z</time>
      </trkpt>
      <trkpt lat="48.13059" lon="7.27554">
        <ele>298</ele>
        <time>2017-06-07T11:28:32Z</time>
      </trkpt>
      <trkpt lat="48.13089" lon="7.2752">
        <ele>303</ele>
        <time>2017-06-07T11:30:32Z</time>
      </trkpt>
      <trkpt lat="48.13125" lon="7.2752">
        <ele>302</ele>
        <time>2017-06-07T11:32:32Z</time>
      </trkpt>
      <trkpt lat="48.13161" lon="7.27502">
        <ele>306</ele>
        <time>2017-06-07T11:34:32Z</time>
      </trkpt>
      <trkpt lat="48.13219" lon="7.27507">
        <ele>304</ele>
        <time>2017-06-07T11:36:32Z</time>
      </trkpt>
      <trkpt lat="48.13257" lon="7.27479">
        <ele>307</ele>
        <time>2017-06-07T11:38:32Z</time>
      </trkpt>
      <trkpt lat="48.13282" lon="7.27437">
        <ele>306</ele>
        <time>2017-06-07T11:40:32Z</time>
      </trkpt>
      <trkpt lat="48.13357" lon="7.27273">
        <ele>301</ele>
        <time>2017-06-07T11:42:32Z</time>
      </trkpt>
      <trkpt lat="48.13377" lon="7.27219">
        <ele>294</ele>
        <time>2017-06-07T11:44:32Z</time>
      </trkpt>
      <trkpt lat="48.13393" lon="7.27128">
        <ele>286</ele>
        <time>2017-06-07T11:46:32Z</time>
      </trkpt>
      <trkpt lat="48.13387" lon="7.2704">
        <ele>285</ele>
        <time>2017-06-07T11:48:32Z</time>
      </trkpt>
      <trkpt lat="48.13371" lon="7.26991">
        <ele>289</ele>
        <time>2017-06-07T11:50:32Z</time>
      </trkpt>
      <trkpt lat="48.13384" lon="7.26941">
        <ele>286</ele>
        <time>2017-06-07T11:52:32Z</time>
      </trkpt>
      <trkpt lat="48.13414" lon="7.26913">
        <ele>278</ele>
        <time>2017-06-07T11:54:32Z</time>
      </trkpt>
      <trkpt lat="48.13427" lon="7.26863">
        <ele>278</ele>
        <time>2017-06-07T11:56:32Z</time>
      </trkpt>
      <trkpt lat="48.13475" lon="7.26811">
        <ele>265</ele>
        <time>2017-06-07T11:58:32Z</time>
      </trkpt>
      <trkpt lat="48.13501" lon="7.26767">
        <ele>258</ele>
        <time>2017-06-07T12:00:32Z</time>
      </trkpt>
      <trkpt lat="48.1352" lon="7.26713">
        <ele>256</ele>
        <time>2017-06-07T12:02:32Z</time>
      </trkpt>
      <trkpt lat="48.13578" lon="7.26635">
        <ele>241</ele>
        <time>2017-06-07T12:04:32Z</time>
      </trkpt>
      <trkpt lat="48.1359" lon="7.26585">
        <ele>241</ele>
        <time>2017-06-07T12:06:32Z</time>
      </trkpt>
      <trkpt lat="48.13626" lon="7.2657">
        <ele>242</ele>
        <time>2017-06-07T12:08:32Z</time>
      </trkpt>
      <trkpt lat="48.13664" lon="7.26572">
        <ele>242</ele>
        <time>2017-06-07T12:10:32Z</time>
      </trkpt>
      <trkpt lat="48.1379" lon="7.26642">
        <ele>244</ele>
        <time>2017-06-07T12:12:32Z</time>
      </trkpt>
      <trkpt lat="48.13826" lon="7.2664">
        <ele>245</ele>
        <time>2017-06-07T12:14:32Z</time>
      </trkpt>
      <trkpt lat="48.13853" lon="7.26598">
        <ele>246</ele>
        <time>2017-06-07T12:16:32Z</time>
      </trkpt>
      <trkpt lat="48.13878" lon="7.26461">
        <ele>248</ele>
        <time>2017-06-07T12:18:32Z</time>
      </trkpt>
      <trkpt lat="48.13883" lon="7.26354">
        <ele>251</ele>
        <time>2017-06-07T12:20:32Z</time>
      </trkpt>
      <trkpt lat="48.13891" lon="7.26243">
        <ele>253</ele>
        <time>2017-06-07T12:22:32Z</time>
      </trkpt>
      <trkpt lat="48.1391" lon="7.26168">
        <ele>254</ele>
        <time>2017-06-07T12:24:32Z</time>
      </trkpt>
      <trkpt lat="48.13945" lon="7.26133">
        <ele>256</ele>
        <time>2017-06-07T12:26:32Z</time>
      </trkpt>
      <trkpt lat="48.13946" lon="7.26133">
        <ele>256</ele>
        <time>2017-06-07T12:28:32Z</time>
      </trkpt>
      <trkpt lat="48.13984" lon="7.26114">
        <ele>256</ele>
        <time>2017-06-07T12:30:32Z</time>
      </trkpt>
      <trkpt lat="48.13996" lon="7.26105">
        <ele>256</ele>
        <time>2017-06-07T12:32:32Z</time>
      </trkpt>
      <trkpt lat="48.13994" lon="7.26057">
        <ele>253</ele>
        <time>2017-06-07T12:34:32Z</time>
      </trkpt>
      <trkpt lat="48.13999" lon="7.26021">
        <ele>252</ele>
        <time>2017-06-07T12:36:32Z</time>
      </trkpt>
      <trkpt lat="48.13995" lon="7.26007">
        <ele>252</ele>
        <time>2017-06-07T12:38:32Z</time>
      </trkpt>
      <trkpt lat="48.13971" lon="7.25998">
        <ele>252</ele>
        <time>2017-06-07T12:40:32Z</time>
      </trkpt>
      <trkpt lat="48.13918" lon="7.25939">
        <ele>251</ele>
        <time>2017-06-07T12:42:32Z</time>
      </trkpt>
      <trkpt lat="48.13911" lon="7.2593">
        <ele>251</ele>
        <time>2017-06-07T12:44:32Z</time>
      </trkpt>
    </trkseg>
  </trk>
</gpx>